Time;durP1;ratioP1;P1;durP2;ratioP2;P2;SDS_P1;SDS_P2;PMS_P1;PMS_P2;Temp;Humidity;BMP_temperature;BMP_pressure;BME280_temperature;BME280_humidity;BME280_pressure;Samples;Min_cycle;Max_cycle;Signal;HPM_P1;HPM_P2
2021/11/27 00:00:16;;;;;;;14.30;9.13;;;4.00;89.20;;;;;;4908159;29;20469;-41
2021/11/27 00:02:44;;;;;;;15.37;8.97;;;4.00;89.20;;;;;;4896025;29;20496;-42
2021/11/27 00:05:12;;;;;;;13.83;7.97;;;4.00;89.10;;;;;;4912468;29;20493;-43
2021/11/27 00:07:40;;;;;;;14.37;9.00;;;4.10;89.20;;;;;;4914102;29;20937;-42
2021/11/27 00:10:10;;;;;;;18.40;10.33;;;4.10;89.20;;;;;;4914135;29;20752;-42
2021/11/27 00:12:37;;;;;;;14.70;9.70;;;4.00;89.20;;;;;;4912378;29;20485;-42
2021/11/27 00:15:07;;;;;;;14.10;9.70;;;4.00;89.30;;;;;;4912967;29;20813;-42
2021/11/27 00:17:35;;;;;;;10.50;8.93;;;4.10;89.30;;;;;;4911698;29;20759;-42
2021/11/27 00:20:06;;;;;;;13.17;8.60;;;4.10;89.30;;;;;;4912593;29;20465;-42
2021/11/27 00:22:33;;;;;;;15.40;10.87;;;4.10;89.30;;;;;;4896937;29;20496;-42
2021/11/27 00:25:01;;;;;;;12.93;8.90;;;4.10;89.30;;;;;;4898481;29;20460;-42
2021/11/27 00:27:28;;;;;;;14.63;9.37;;;4.10;89.50;;;;;;4895424;29;20453;-42
2021/11/27 00:29:55;;;;;;;18.30;10.33;;;4.10;89.50;;;;;;4911695;29;20461;-42
2021/11/27 00:32:23;;;;;;;13.57;8.13;;;4.20;89.30;;;;;;4913397;29;20524;-41
2021/11/27 00:34:50;;;;;;;12.57;8.73;;;4.20;89.30;;;;;;4912114;29;20456;-41
2021/11/27 00:37:17;;;;;;;14.10;8.73;;;4.10;89.30;;;;;;4911610;29;20496;-42
2021/11/27 00:39:44;;;;;;;11.60;8.10;;;4.10;89.40;;;;;;4913171;29;20464;-42
2021/11/27 00:42:11;;;;;;;15.73;8.17;;;4.10;89.30;;;;;;4911603;29;20456;-42
2021/11/27 00:44:38;;;;;;;12.80;7.77;;;4.10;89.40;;;;;;4912707;29;20497;-41
2021/11/27 00:47:06;;;;;;;8.70;7.23;;;4.20;89.30;;;;;;4897369;29;20465;-42
2021/11/27 00:49:33;;;;;;;10.43;6.33;;;4.20;89.40;;;;;;4912586;29;20450;-41
2021/11/27 00:52:01;;;;;;;13.80;7.00;;;4.20;89.20;;;;;;4911257;29;20461;-42
2021/11/27 00:54:28;;;;;;;9.63;7.33;;;4.20;89.30;;;;;;4911150;29;20540;-42
2021/11/27 00:56:55;;;;;;;10.87;7.70;;;4.20;89.40;;;;;;4907047;29;20516;-42
2021/11/27 00:59:22;;;;;;;9.73;7.63;;;4.20;89.20;;;;;;4909325;29;20969;-42
2021/11/27 01:01:49;;;;;;;12.53;7.37;;;4.20;89.30;;;;;;4912280;29;20564;-41
2021/11/27 01:04:16;;;;;;;9.83;7.00;;;4.20;89.30;;;;;;4910303;29;20520;-41
2021/11/27 01:06:43;;;;;;;8.90;6.50;;;4.30;89.10;;;;;;4911429;29;20496;-42
2021/11/27 01:09:13;;;;;;;11.83;7.30;;;4.30;89.00;;;;;;4896755;29;20978;-41
2021/11/27 01:11:51;;;;;;;10.50;7.63;;;4.20;89.30;;;;;;4892829;29;20461;-41
2021/11/27 01:14:22;;;;;;;12.90;7.70;;;4.20;89.10;;;;;;4895678;29;20456;-42
2021/11/27 01:16:53;;;;;;;8.67;6.30;;;4.30;89.00;;;;;;4893607;29;20837;-42
2021/11/27 01:19:20;;;;;;;8.73;6.23;;;4.20;89.10;;;;;;4895565;29;20867;-41
2021/11/27 01:21:51;;;;;;;10.20;6.77;;;4.20;89.20;;;;;;4909301;29;20456;-42
2021/11/27 01:24:19;;;;;;;9.87;6.00;;;4.20;89.40;;;;;;4893886;29;20579;-43
2021/11/27 01:26:46;;;;;;;7.83;5.57;;;4.20;89.50;;;;;;4894971;29;20949;-42
2021/11/27 01:29:33;;;;;;;9.90;6.60;;;4.30;89.10;;;;;;4910385;29;20468;-42
2021/11/27 01:32:00;;;;;;;8.57;6.13;;;4.20;89.30;;;;;;4908523;29;20498;-42
2021/11/27 01:34:27;;;;;;;9.97;6.23;;;4.20;89.30;;;;;;4911695;29;20530;-42
2021/11/27 01:36:54;;;;;;;9.47;5.87;;;4.20;89.30;;;;;;4895534;29;20540;-42
2021/11/27 01:39:21;;;;;;;10.87;6.20;;;4.20;89.30;;;;;;4909519;29;20599;-42
2021/11/27 01:41:47;;;;;;;7.10;5.50;;;4.20;89.60;;;;;;4897278;29;20463;-42
2021/11/27 01:44:14;;;;;;;6.50;5.73;;;4.20;89.50;;;;;;4910321;29;20497;-42
2021/11/27 01:46:42;;;;;;;8.33;5.60;;;4.20;89.50;;;;;;4908091;29;20529;-42
2021/11/27 01:49:09;;;;;;;8.33;5.57;;;4.20;89.50;;;;;;4909119;29;20461;-42
2021/11/27 01:51:37;;;;;;;8.30;5.50;;;4.30;89.10;;;;;;4910365;29;20553;-42
2021/11/27 01:54:08;;;;;;;9.20;6.70;;;4.30;89.20;;;;;;4910479;29;20957;-41
2021/11/27 01:57:00;;;;;;;6.70;5.50;;;4.30;89.20;;;;;;4907636;29;20480;-42
2021/11/27 01:59:29;;;;;;;7.30;5.10;;;4.30;89.20;;;;;;4909839;29;20464;-41
2021/11/27 02:01:56;;;;;;;6.10;4.57;;;4.40;89.20;;;;;;4895344;29;20560;-41
2021/11/27 02:04:25;;;;;;;6.43;5.13;;;4.40;89.00;;;;;;4911692;29;20495;-41
2021/11/27 02:06:52;;;;;;;5.23;4.33;;;4.40;89.10;;;;;;4910059;29;20469;-42
2021/11/27 02:09:25;;;;;;;7.53;5.33;;;4.40;89.20;;;;;;4909498;29;20552;-42
2021/11/27 02:11:53;;;;;;;7.10;4.77;;;4.40;88.80;;;;;;4909005;29;20467;-41
2021/11/27 02:14:20;;;;;;;8.50;4.53;;;4.40;89.10;;;;;;4906980;29;20464;-42
2021/11/27 02:16:49;;;;;;;9.37;5.17;;;4.40;89.20;;;;;;4906964;29;21214;-41
2021/11/27 02:19:17;;;;;;;5.87;4.50;;;4.50;89.10;;;;;;4910908;29;20476;-42
2021/11/27 02:21:44;;;;;;;10.40;5.13;;;4.50;89.10;;;;;;4895461;29;20461;-41
2021/11/27 02:24:14;;;;;;;5.13;3.97;;;4.50;89.00;;;;;;4910842;29;20861;-41
2021/11/27 02:26:41;;;;;;;7.27;4.27;;;4.50;89.10;;;;;;4908837;29;20460;-42
2021/11/27 02:29:29;;;;;;;5.43;3.47;;;4.50;89.10;;;;;;4907782;29;20516;-42
2021/11/27 02:31:58;;;;;;;4.47;3.70;;;4.60;89.10;;;;;;4906172;29;21016;-42
2021/11/27 02:34:25;;;;;;;5.43;3.80;;;4.60;88.80;;;;;;4910296;29;20949;-42
2021/11/27 02:36:55;;;;;;;6.97;3.97;;;4.70;88.90;;;;;;4908346;29;20496;-42
2021/11/27 02:39:23;;;;;;;7.57;4.67;;;4.70;88.70;;;;;;4893759;29;20885;-41
2021/11/27 02:41:53;;;;;;;4.33;3.93;;;4.70;88.90;;;;;;4910355;29;20465;-42
2021/11/27 02:44:25;;;;;;;4.97;3.70;;;4.70;88.70;;;;;;4910665;29;20555;-42
2021/11/27 02:46:53;;;;;;;3.60;3.20;;;4.70;88.60;;;;;;4909009;29;20877;-42
2021/11/27 02:49:21;;;;;;;2.93;2.60;;;4.70;88.60;;;;;;4907222;29;20851;-42
2021/11/27 02:51:49;;;;;;;2.33;2.13;;;4.80;88.30;;;;;;4906254;29;20465;-42
2021/11/27 02:54:16;;;;;;;2.17;1.97;;;4.80;88.30;;;;;;4895472;29;20469;-42
2021/11/27 02:56:44;;;;;;;1.73;1.63;;;4.80;88.30;;;;;;4909068;29;20481;-42
2021/11/27 02:59:14;;;;;;;1.80;1.70;;;4.80;88.40;;;;;;4909894;29;20484;-42
2021/11/27 03:01:42;;;;;;;1.90;1.80;;;4.80;88.20;;;;;;4909728;29;20468;-41
2021/11/27 03:04:09;;;;;;;2.60;2.40;;;4.80;88.30;;;;;;4893034;29;21028;-42
2021/11/27 03:06:36;;;;;;;1.80;1.70;;;4.80;88.20;;;;;;4910124;29;21020;-41
2021/11/27 03:09:05;;;;;;;2.43;2.30;;;4.80;88.40;;;;;;4908309;29;20488;-41
2021/11/27 03:11:32;;;;;;;2.43;2.07;;;4.70;88.50;;;;;;4909590;29;20461;-41
2021/11/27 03:13:59;;;;;;;3.23;2.20;;;4.70;88.50;;;;;;4895264;29;20863;-42
2021/11/27 03:16:28;;;;;;;2.27;2.03;;;4.70;88.70;;;;;;4897743;29;20476;-42
2021/11/27 03:19:12;;;;;;;2.43;2.20;;;4.70;89.00;;;;;;4913541;29;21067;-42
2021/11/27 03:21:40;;;;;;;2.37;2.10;;;4.70;89.00;;;;;;4899539;29;20457;-41
2021/11/27 03:24:07;;;;;;;2.20;2.10;;;4.70;89.00;;;;;;4910661;29;20542;-42
2021/11/27 03:26:34;;;;;;;3.17;2.10;;;4.70;88.70;;;;;;4897074;29;20461;-41
2021/11/27 03:29:01;;;;;;;2.67;2.30;;;4.60;89.10;;;;;;4911508;29;20453;-41
2021/11/27 03:31:27;;;;;;;2.37;2.07;;;4.60;89.30;;;;;;4912067;29;20917;-41
2021/11/27 03:33:54;;;;;;;2.60;1.97;;;4.60;89.40;;;;;;4898976;29;20492;-42
2021/11/27 03:36:21;;;;;;;3.30;2.13;;;4.70;89.10;;;;;;4912892;29;20472;-42
2021/11/27 03:38:48;;;;;;;2.70;2.50;;;4.70;88.90;;;;;;4912950;29;20475;-42
2021/11/27 03:41:15;;;;;;;1.70;1.60;;;4.70;88.90;;;;;;4896374;29;20460;-41
2021/11/27 03:43:44;;;;;;;2.10;2.00;;;4.70;89.10;;;;;;4912922;29;21164;-41
2021/11/27 03:46:11;;;;;;;3.17;2.83;;;4.70;89.00;;;;;;4912420;29;20472;-41
2021/11/27 03:48:42;;;;;;;1.40;1.40;;;4.80;89.10;;;;;;4898797;29;20987;-41
2021/11/27 03:51:20;;;;;;;2.63;2.40;;;4.80;88.90;;;;;;4910808;29;20457;-42
2021/11/27 03:53:48;;;;;;;1.90;1.80;;;4.80;88.80;;;;;;4899862;29;20527;-43
2021/11/27 03:56:21;;;;;;;1.70;1.60;;;4.80;88.90;;;;;;4918352;29;20552;-43
2021/11/27 03:58:48;;;;;;;2.20;2.00;;;4.80;88.60;;;;;;4916945;29;20476;-43
2021/11/27 04:01:18;;;;;;;2.20;1.83;;;4.80;88.60;;;;;;4914704;29;20553;-42
2021/11/27 04:03:47;;;;;;;1.67;1.53;;;4.80;88.80;;;;;;4912436;29;20503;-41
2021/11/27 04:06:15;;;;;;;2.00;1.70;;;4.80;88.80;;;;;;4911913;29;21016;-42
2021/11/27 04:08:41;;;;;;;1.63;1.53;;;4.70;89.00;;;;;;4912177;29;20473;-42
2021/11/27 04:11:08;;;;;;;3.20;1.90;;;4.80;89.00;;;;;;4910286;29;20452;-41
2021/11/27 04:13:36;;;;;;;1.90;1.80;;;4.70;89.00;;;;;;4913277;29;21066;-41
2021/11/27 04:16:04;;;;;;;2.90;2.00;;;4.70;89.00;;;;;;4912162;29;20453;-41
2021/11/27 04:18:31;;;;;;;2.07;1.80;;;4.70;89.10;;;;;;4912156;29;20567;-42
2021/11/27 04:20:58;;;;;;;2.20;1.90;;;4.80;89.10;;;;;;4909461;29;20465;-41
2021/11/27 04:23:26;;;;;;;1.93;1.47;;;4.80;89.00;;;;;;4910592;29;20469;-42
2021/11/27 04:25:53;;;;;;;1.70;1.60;;;4.80;89.00;;;;;;4913157;29;20544;-43
2021/11/27 04:28:20;;;;;;;1.83;1.33;;;4.80;88.90;;;;;;4911932;29;20960;-41
2021/11/27 04:30:47;;;;;;;1.70;1.60;;;4.80;88.90;;;;;;4913023;29;20548;-42
2021/11/27 04:33:15;;;;;;;1.53;1.43;;;4.80;88.80;;;;;;4912853;29;20532;-42
2021/11/27 04:35:42;;;;;;;1.57;1.47;;;4.80;88.40;;;;;;4911217;29;20461;-41
2021/11/27 04:38:09;;;;;;;1.53;1.43;;;4.80;88.30;;;;;;4910771;29;21032;-42
2021/11/27 04:40:36;;;;;;;1.53;1.37;;;4.90;88.40;;;;;;4894912;29;20460;-41
2021/11/27 04:43:03;;;;;;;1.57;1.47;;;4.80;88.50;;;;;;4909951;29;20476;-41
2021/11/27 04:45:33;;;;;;;1.77;1.67;;;4.80;88.30;;;;;;4912328;29;20531;-42
2021/11/27 04:48:00;;;;;;;1.13;1.13;;;4.80;88.50;;;;;;4894511;29;20449;-42
2021/11/27 04:50:30;;;;;;;1.40;1.30;;;4.80;88.50;;;;;;4909015;29;20457;-41
2021/11/27 04:52:58;;;;;;;1.60;1.50;;;4.80;88.60;;;;;;4911003;29;20686;-42
2021/11/27 04:55:25;;;;;;;1.53;1.43;;;4.80;88.70;;;;;;4912081;29;20487;-41
2021/11/27 04:57:52;;;;;;;1.67;1.57;;;4.90;88.50;;;;;;4911326;29;21022;-43
2021/11/27 05:00:24;;;;;;;1.70;1.60;;;4.90;88.50;;;;;;4912476;29;20468;-42
2021/11/27 05:02:50;;;;;;;1.37;1.27;;;4.90;88.30;;;;;;4909668;29;20457;-42
2021/11/27 05:05:17;;;;;;;2.30;1.90;;;5.00;88.10;;;;;;4910715;29;20500;-41
2021/11/27 05:07:44;;;;;;;1.40;1.30;;;4.90;88.40;;;;;;4910768;29;20461;-42
2021/11/27 05:10:12;;;;;;;3.10;1.40;;;5.00;88.30;;;;;;4911344;29;20515;-42
2021/11/27 05:12:39;;;;;;;1.77;1.67;;;5.00;88.00;;;;;;4910155;29;20827;-42
2021/11/27 05:15:07;;;;;;;1.43;1.40;;;5.00;87.90;;;;;;4912246;29;21077;-42
2021/11/27 05:17:35;;;;;;;3.17;2.00;;;5.00;87.80;;;;;;4911083;29;20617;-41
2021/11/27 05:20:03;;;;;;;1.40;1.30;;;4.90;88.10;;;;;;4908130;29;20845;-41
2021/11/27 05:22:30;;;;;;;1.87;1.70;;;4.90;88.50;;;;;;4913175;29;20964;-41
2021/11/27 05:24:59;;;;;;;2.83;1.80;;;5.00;88.30;;;;;;4910630;29;20497;-41
2021/11/27 05:27:26;;;;;;;2.40;2.20;;;5.00;88.10;;;;;;4909469;29;20459;-42
2021/11/27 05:29:54;;;;;;;2.20;1.60;;;5.00;88.00;;;;;;4907591;29;20772;-42
2021/11/27 05:32:28;;;;;;;1.70;1.60;;;5.00;87.90;;;;;;4910736;29;20464;-41
2021/11/27 05:34:55;;;;;;;2.17;1.97;;;5.00;87.80;;;;;;4908838;29;20460;-41
2021/11/27 05:37:22;;;;;;;1.70;1.60;;;5.00;88.00;;;;;;4909760;29;20460;-42
2021/11/27 05:39:49;;;;;;;1.87;1.77;;;5.00;87.90;;;;;;4894055;29;20483;-42
2021/11/27 05:42:16;;;;;;;3.03;2.07;;;5.00;88.00;;;;;;4912203;29;20461;-41
2021/11/27 05:44:45;;;;;;;1.70;1.60;;;5.00;88.00;;;;;;4909954;29;20496;-42
2021/11/27 05:47:12;;;;;;;1.67;1.57;;;5.00;88.00;;;;;;4910735;29;20542;-41
2021/11/27 05:49:39;;;;;;;1.70;1.60;;;5.00;87.90;;;;;;4894042;29;20457;-42
2021/11/27 05:52:06;;;;;;;2.03;1.90;;;5.10;87.50;;;;;;4909503;29;20461;-42
2021/11/27 05:54:33;;;;;;;2.50;2.30;;;5.10;87.70;;;;;;4909427;29;20468;-42
2021/11/27 05:57:00;;;;;;;1.97;1.87;;;5.00;87.70;;;;;;4910368;29;20483;-41
2021/11/27 05:59:27;;;;;;;2.57;2.37;;;5.00;88.30;;;;;;4908740;29;20479;-42
2021/11/27 06:01:53;;;;;;;3.13;2.83;;;5.00;88.00;;;;;;4909088;29;20808;-41
2021/11/27 06:04:21;;;;;;;2.57;2.37;;;5.00;88.10;;;;;;4893894;29;20988;-42
2021/11/27 06:06:47;;;;;;;2.90;2.70;;;5.00;87.90;;;;;;4910365;29;20475;-42
2021/11/27 06:09:14;;;;;;;2.53;2.33;;;5.00;88.10;;;;;;4909923;29;20571;-42
2021/11/27 06:11:41;;;;;;;1.97;1.87;;;4.90;88.60;;;;;;4893352;29;20468;-41
2021/11/27 06:14:08;;;;;;;2.67;2.47;;;4.90;88.70;;;;;;4893187;29;20467;-42
2021/11/27 06:16:36;;;;;;;2.37;2.17;;;4.90;88.80;;;;;;4910027;29;20457;-42
2021/11/27 06:19:03;;;;;;;2.97;2.67;;;5.00;88.90;;;;;;4909385;29;20482;-42
2021/11/27 06:21:30;;;;;;;5.07;2.37;;;5.00;89.00;;;;;;4891867;29;20523;-41
2021/11/27 06:23:58;;;;;;;2.23;2.10;;;5.00;88.90;;;;;;4908033;29;20572;-41
2021/11/27 06:26:25;;;;;;;3.33;3.00;;;5.00;88.90;;;;;;4910539;29;21056;-42
2021/11/27 06:28:52;;;;;;;3.07;2.87;;;5.00;88.70;;;;;;4909993;29;20457;-42
2021/11/27 06:31:20;;;;;;;3.17;2.73;;;5.00;88.70;;;;;;4896283;29;20457;-41
2021/11/27 06:33:46;;;;;;;2.83;2.60;;;5.10;88.60;;;;;;4911242;29;20453;-41
2021/11/27 06:36:13;;;;;;;3.17;2.83;;;5.10;88.50;;;;;;4909316;29;20462;-41
2021/11/27 06:38:40;;;;;;;3.13;2.83;;;5.10;88.00;;;;;;4892140;29;20468;-41
2021/11/27 06:41:07;;;;;;;3.50;2.63;;;5.10;88.10;;;;;;4909224;29;20465;-42
2021/11/27 06:43:34;;;;;;;2.80;2.50;;;5.10;87.80;;;;;;4907875;29;20496;-42
2021/11/27 06:46:02;;;;;;;2.50;2.30;;;5.10;87.50;;;;;;4909867;29;20497;-41
2021/11/27 06:48:30;;;;;;;3.20;2.90;;;5.10;87.90;;;;;;4910501;29;20476;-41
2021/11/27 06:50:57;;;;;;;2.70;2.50;;;5.00;88.30;;;;;;4896123;29;20465;-42
2021/11/27 06:53:25;;;;;;;2.97;2.37;;;5.10;88.30;;;;;;4914082;29;20958;-42
2021/11/27 06:55:52;;;;;;;3.70;3.50;;;5.00;88.40;;;;;;4912409;29;20487;-42
2021/11/27 06:58:18;;;;;;;3.80;3.13;;;5.00;88.60;;;;;;4912381;29;20460;-42
2021/11/27 07:00:45;;;;;;;2.73;2.53;;;5.00;88.60;;;;;;4911658;29;20464;-42
2021/11/27 07:03:12;;;;;;;3.37;2.50;;;5.00;88.60;;;;;;4912935;29;20520;-42
2021/11/27 07:05:39;;;;;;;2.13;2.03;;;5.10;88.60;;;;;;4911262;29;20488;-42
2021/11/27 07:08:07;;;;;;;2.50;2.30;;;5.20;87.20;;;;;;4909831;29;20467;-42
2021/11/27 07:10:35;;;;;;;2.23;2.13;;;5.10;87.30;;;;;;4911461;29;20536;-42
2021/11/27 07:13:02;;;;;;;2.90;2.00;;;5.10;87.30;;;;;;4896432;29;20457;-42
2021/11/27 07:15:29;;;;;;;3.80;3.10;;;5.10;87.10;;;;;;4911176;29;20466;-42
2021/11/27 07:17:55;;;;;;;9.97;6.00;;;5.10;87.10;;;;;;4897891;29;20483;-42
2021/11/27 07:20:22;;;;;;;2.87;2.53;;;5.10;87.10;;;;;;4896151;29;20453;-41
2021/11/27 07:22:49;;;;;;;2.80;2.60;;;5.00;87.10;;;;;;4909340;29;20476;-41
2021/11/27 07:25:16;;;;;;;3.13;2.93;;;5.00;87.30;;;;;;4894637;29;20507;-42
2021/11/27 07:27:42;;;;;;;2.53;2.43;;;5.00;88.10;;;;;;4909759;29;21073;-42
2021/11/27 07:30:10;;;;;;;2.40;2.27;;;4.90;88.10;;;;;;4909195;29;20465;-42
2021/11/27 07:32:36;;;;;;;2.20;2.10;;;4.90;88.10;;;;;;4893287;29;20472;-42
2021/11/27 07:35:04;;;;;;;2.60;2.40;;;4.90;88.30;;;;;;4910768;29;20465;-42
2021/11/27 07:37:31;;;;;;;2.40;2.30;;;5.00;88.70;;;;;;4912990;29;20457;-42
2021/11/27 07:39:57;;;;;;;2.43;2.23;;;5.00;88.60;;;;;;4910351;29;20835;-42
2021/11/27 07:42:24;;;;;;;2.10;2.00;;;4.90;88.60;;;;;;4912312;29;20461;-42
2021/11/27 07:44:51;;;;;;;3.03;2.33;;;4.90;88.80;;;;;;4911364;29;20492;-41
2021/11/27 07:47:18;;;;;;;2.30;2.10;;;4.90;89.00;;;;;;4895104;29;20468;-42
2021/11/27 07:49:44;;;;;;;2.07;1.87;;;4.90;89.00;;;;;;4896739;29;20460;-42
2021/11/27 07:52:11;;;;;;;2.40;2.20;;;5.00;88.90;;;;;;4911139;29;20486;-41
2021/11/27 07:54:38;;;;;;;2.20;2.10;;;5.00;88.80;;;;;;4910566;29;20472;-42
2021/11/27 07:57:06;;;;;;;2.83;2.40;;;5.00;89.00;;;;;;4907600;29;20498;-41
2021/11/27 07:59:34;;;;;;;3.20;2.50;;;5.10;88.70;;;;;;4911510;29;20461;-41
2021/11/27 08:02:01;;;;;;;3.57;2.30;;;5.10;88.70;;;;;;4894754;29;20468;-42
2021/11/27 08:04:28;;;;;;;2.17;2.00;;;5.10;88.80;;;;;;4892739;29;20834;-41
2021/11/27 08:06:55;;;;;;;2.43;2.33;;;5.10;88.80;;;;;;4898624;29;20453;-41
2021/11/27 08:09:22;;;;;;;2.60;2.40;;;5.10;88.90;;;;;;4912286;29;20469;-42
2021/11/27 08:11:49;;;;;;;4.73;2.60;;;5.10;88.90;;;;;;4913864;29;20465;-42
2021/11/27 08:14:16;;;;;;;3.07;2.87;;;5.10;89.10;;;;;;4911695;29;20453;-41
2021/11/27 08:16:42;;;;;;;3.17;2.97;;;5.20;88.90;;;;;;4911822;29;20458;-42
2021/11/27 08:19:09;;;;;;;4.57;2.97;;;5.20;88.80;;;;;;4912620;29;20658;-41
2021/11/27 08:21:36;;;;;;;3.00;2.70;;;5.30;88.60;;;;;;4912046;29;20461;-41
2021/11/27 08:24:03;;;;;;;2.60;2.40;;;5.30;88.50;;;;;;4912300;29;20472;-42
2021/11/27 08:26:30;;;;;;;3.53;2.77;;;5.40;88.00;;;;;;4913662;29;20511;-41
2021/11/27 08:28:56;;;;;;;3.20;3.00;;;5.40;87.60;;;;;;4911017;29;20968;-42
2021/11/27 08:31:23;;;;;;;2.57;2.37;;;5.40;87.20;;;;;;4910546;29;20461;-42
2021/11/27 08:33:50;;;;;;;2.70;2.50;;;5.40;87.40;;;;;;4893986;29;20465;-42
2021/11/27 08:36:17;;;;;;;2.87;2.67;;;5.40;87.20;;;;;;4896572;29;20598;-42
2021/11/27 08:38:43;;;;;;;2.50;2.30;;;5.40;87.00;;;;;;4912082;29;20457;-42
2021/11/27 08:41:11;;;;;;;2.63;2.43;;;5.30;87.80;;;;;;4912328;29;20449;-42
2021/11/27 08:43:38;;;;;;;2.80;2.60;;;5.30;87.90;;;;;;4912942;29;20476;-42
2021/11/27 08:46:05;;;;;;;2.23;2.03;;;5.40;87.20;;;;;;4896982;29;20488;-42
2021/11/27 08:48:36;;;;;;;2.30;2.03;;;5.40;87.30;;;;;;4910932;29;20461;-42
2021/11/27 08:51:09;;;;;;;2.07;1.97;;;5.40;86.40;;;;;;4909615;29;20504;-42
2021/11/27 08:53:36;;;;;;;2.83;2.13;;;5.40;86.70;;;;;;4910269;29;20575;-42
2021/11/27 08:56:06;;;;;;;2.40;2.30;;;5.30;87.00;;;;;;4911564;29;21035;-42
2021/11/27 08:58:35;;;;;;;1.90;1.80;;;5.30;87.00;;;;;;4896239;29;20461;-42
2021/11/27 09:01:02;;;;;;;2.13;1.90;;;5.30;86.70;;;;;;4912481;29;20843;-42
2021/11/27 09:03:30;;;;;;;2.03;1.93;;;5.30;86.90;;;;;;4908726;29;20476;-42
2021/11/27 09:05:57;;;;;;;2.30;2.10;;;5.30;87.00;;;;;;4910458;29;20493;-42
2021/11/27 09:08:24;;;;;;;2.57;2.37;;;5.40;86.90;;;;;;4912689;29;20496;-42
2021/11/27 09:10:50;;;;;;;1.70;1.60;;;5.40;86.60;;;;;;4912330;29;20459;-42
2021/11/27 09:13:17;;;;;;;2.33;2.13;;;5.40;86.20;;;;;;4908082;29;20461;-41
2021/11/27 09:15:44;;;;;;;1.97;1.80;;;5.40;86.20;;;;;;4909065;29;20484;-41
2021/11/27 09:18:11;;;;;;;1.70;1.60;;;5.40;86.30;;;;;;4909090;29;20475;-42
2021/11/27 09:20:38;;;;;;;1.70;1.60;;;5.40;86.40;;;;;;4895590;29;20520;-42
2021/11/27 09:23:06;;;;;;;1.90;1.80;;;5.40;86.10;;;;;;4910874;29;20472;-41
2021/11/27 09:25:34;;;;;;;3.17;1.87;;;5.50;86.00;;;;;;4894274;29;20496;-42
2021/11/27 09:28:00;;;;;;;5.07;4.10;;;5.50;86.00;;;;;;4909374;29;20547;-41
2021/11/27 09:30:29;;;;;;;8.07;5.53;;;5.50;85.60;;;;;;4909046;29;20460;-42
2021/11/27 09:32:56;;;;;;;11.17;6.90;;;5.50;85.80;;;;;;4906830;29;20465;-41
2021/11/27 09:35:24;;;;;;;3.90;2.90;;;5.50;85.50;;;;;;4909771;29;20800;-42
2021/11/27 09:37:51;;;;;;;2.57;2.37;;;5.70;85.40;;;;;;4908983;29;20461;-42
2021/11/27 09:40:18;;;;;;;2.00;1.90;;;5.70;85.50;;;;;;4911770;29;20547;-41
2021/11/27 09:42:57;;;;;;;2.40;1.73;;;5.90;85.60;;;;;;5063531;27;20626;-41
2021/11/27 09:45:26;;;;;;;1.73;1.63;;;6.20;84.50;;;;;;5051442;28;21009;-42
2021/11/27 09:47:55;;;;;;;1.40;1.30;;;6.50;84.00;;;;;;5058949;28;20534;-42
2021/11/27 09:50:23;;;;;;;1.50;1.40;;;6.60;82.40;;;;;;5052533;28;20454;-42
2021/11/27 09:52:51;;;;;;;1.80;1.70;;;6.70;82.10;;;;;;5052042;28;20457;-42
2021/11/27 09:55:19;;;;;;;2.23;1.63;;;6.80;80.10;;;;;;5054297;28;21029;-42
2021/11/27 09:57:49;;;;;;;2.10;1.73;;;6.80;80.40;;;;;;5051805;28;20568;-42
2021/11/27 10:00:18;;;;;;;2.07;1.87;;;6.80;80.60;;;;;;5050001;28;20945;-42
2021/11/27 10:02:51;;;;;;;1.80;1.70;;;6.80;81.00;;;;;;5053624;28;20493;-42
2021/11/27 10:05:18;;;;;;;4.83;2.03;;;6.80;81.10;;;;;;5054339;28;20461;-42
2021/11/27 10:07:47;;;;;;;1.63;1.53;;;6.70;81.10;;;;;;5053669;28;20541;-42
2021/11/27 10:10:15;;;;;;;1.60;1.50;;;6.70;80.20;;;;;;5063144;28;20457;-42
2021/11/27 10:12:42;;;;;;;1.70;1.60;;;6.60;80.70;;;;;;5052966;28;20469;-42
2021/11/27 10:15:11;;;;;;;1.70;1.60;;;6.60;80.30;;;;;;5052268;28;20830;-42
2021/11/27 10:17:37;;;;;;;2.93;1.50;;;6.60;80.50;;;;;;5050979;28;20453;-42
2021/11/27 10:20:07;;;;;;;1.40;1.30;;;6.70;80.20;;;;;;5053139;28;20817;-42
2021/11/27 10:22:48;;;;;;;1.73;1.60;;;6.70;78.10;;;;;;5037141;28;20493;-42
2021/11/27 10:25:33;;;;;;;1.47;1.10;;;6.70;78.30;;;;;;5049984;28;20458;-42
2021/11/27 10:28:07;;;;;;;1.60;1.50;;;6.70;78.10;;;;;;5048426;28;20472;-42
2021/11/27 10:31:00;;;;;;;1.67;1.57;;;6.60;78.40;;;;;;5053182;28;20442;-42
2021/11/27 10:33:27;;;;;;;1.50;1.40;;;6.60;79.50;;;;;;5057742;28;20965;-42
2021/11/27 10:35:59;;;;;;;2.30;1.97;;;6.60;79.00;;;;;;5051991;28;20462;-42
2021/11/27 10:38:44;;;;;;;1.80;1.70;;;6.60;78.50;;;;;;5050207;28;20446;-42
2021/11/27 10:41:13;;;;;;;1.67;1.57;;;6.70;77.80;;;;;;5049082;28;20497;-42
2021/11/27 10:44:02;;;;;;;1.73;1.63;;;6.70;79.00;;;;;;5055330;28;20965;-42
2021/11/27 10:46:31;;;;;;;2.07;1.40;;;6.70;78.90;;;;;;5048985;28;20450;-42
2021/11/27 10:48:58;;;;;;;1.83;1.70;;;6.70;78.60;;;;;;5052364;28;20447;-42
2021/11/27 10:51:26;;;;;;;1.57;1.47;;;6.70;78.50;;;;;;5051875;28;20451;-42
2021/11/27 10:53:56;;;;;;;1.80;1.70;;;6.80;77.80;;;;;;5037051;28;20456;-43
2021/11/27 10:56:43;;;;;;;2.00;1.60;;;6.70;78.10;;;;;;5042700;28;20558;-42
2021/11/27 10:59:11;;;;;;;1.70;1.60;;;6.70;78.70;;;;;;5039577;28;20454;-43
2021/11/27 11:02:04;;;;;;;1.83;1.70;;;6.70;79.40;;;;;;5037869;28;20482;-43
2021/11/27 11:04:32;;;;;;;2.30;1.40;;;6.80;79.00;;;;;;5040661;28;20447;-43
2021/11/27 11:07:20;;;;;;;1.87;1.77;;;6.80;78.30;;;;;;5035317;28;20526;-42
2021/11/27 11:10:06;;;;;;;1.90;1.70;;;6.80;77.10;;;;;;5038008;28;20543;-42
2021/11/27 11:12:33;;;;;;;2.00;1.80;;;6.90;77.80;;;;;;5036045;28;20524;-42
2021/11/27 11:15:13;;;;;;;2.03;1.90;;;6.90;76.10;;;;;;5035980;28;20538;-42
2021/11/27 11:17:42;;;;;;;2.53;2.17;;;6.90;76.00;;;;;;5038508;28;20776;-42
2021/11/27 11:20:20;;;;;;;2.63;2.43;;;6.90;76.30;;;;;;5040395;28;20457;-42
2021/11/27 11:23:06;;;;;;;2.40;1.80;;;6.90;75.80;;;;;;5039853;28;20999;-42
2021/11/27 11:25:58;;;;;;;2.23;1.70;;;6.80;76.80;;;;;;5037914;28;20897;-42
2021/11/27 11:28:28;;;;;;;2.10;2.00;;;6.80;77.00;;;;;;5042875;28;20466;-42
2021/11/27 11:31:00;;;;;;;1.63;1.57;;;6.80;76.60;;;;;;5040294;28;20952;-42
2021/11/27 11:33:28;;;;;;;1.60;1.50;;;6.80;76.00;;;;;;5030453;28;20463;-42
2021/11/27 11:35:56;;;;;;;2.77;2.47;;;6.80;76.00;;;;;;5044381;28;20458;-42
2021/11/27 11:38:23;;;;;;;2.00;1.63;;;6.70;77.30;;;;;;5041715;28;20456;-42
2021/11/27 11:40:52;;;;;;;4.70;2.13;;;6.70;77.50;;;;;;5040517;28;20490;-42
2021/11/27 11:43:19;;;;;;;2.23;2.13;;;6.70;77.30;;;;;;5039054;28;20900;-42
2021/11/27 11:45:46;;;;;;;1.90;1.70;;;6.70;77.40;;;;;;5036163;28;20456;-42
2021/11/27 11:48:22;;;;;;;3.20;1.83;;;6.60;76.80;;;;;;5038085;28;20454;-42
2021/11/27 11:51:17;;;;;;;2.20;1.93;;;6.70;77.20;;;;;;5037123;28;20521;-42
2021/11/27 11:53:51;;;;;;;2.50;1.70;;;6.70;77.40;;;;;;5026050;28;21000;-42
2021/11/27 11:56:20;;;;;;;2.00;1.80;;;6.70;76.50;;;;;;5045177;28;20572;-42
2021/11/27 11:58:49;;;;;;;1.50;1.40;;;6.60;75.50;;;;;;5036675;28;20462;-42
2021/11/27 12:01:28;;;;;;;1.90;1.80;;;6.60;75.70;;;;;;5037970;28;20451;-42
2021/11/27 12:03:55;;;;;;;2.70;2.50;;;6.60;76.50;;;;;;5039061;28;20496;-42
2021/11/27 12:06:25;;;;;;;2.70;2.27;;;6.50;76.80;;;;;;5035770;28;20998;-42
2021/11/27 12:08:52;;;;;;;2.87;2.47;;;6.50;77.00;;;;;;5035504;28;20548;-42
2021/11/27 12:11:53;;;;;;;13.70;3.23;;;6.50;77.10;;;;;;5039689;28;20479;-42
2021/11/27 12:14:23;;;;;;;5.00;3.67;;;6.40;76.00;;;;;;5037988;28;20497;-42
2021/11/27 12:17:15;;;;;;;6.23;4.67;;;6.40;77.10;;;;;;5039988;28;20456;-42
2021/11/27 12:19:44;;;;;;;2.07;1.90;;;6.30;77.10;;;;;;5040031;28;20459;-41
2021/11/27 12:22:20;;;;;;;2.80;2.60;;;6.40;76.60;;;;;;5044458;28;20479;-41
2021/11/27 12:25:08;;;;;;;2.50;2.30;;;6.40;76.80;;;;;;5040691;28;20475;-41
2021/11/27 12:27:55;;;;;;;1.90;1.80;;;6.40;74.70;;;;;;5035529;28;20485;-42
2021/11/27 12:30:22;;;;;;;2.20;2.00;;;6.40;72.60;;;;;;5035956;28;20473;-42
2021/11/27 12:32:49;;;;;;;2.90;2.20;;;6.40;71.60;;;;;;5037518;28;20475;-42
2021/11/27 12:35:32;;;;;;;4.93;2.27;;;6.40;72.60;;;;;;5037250;28;20485;-42
2021/11/27 12:38:08;;;;;;;2.63;2.40;;;6.40;71.60;;;;;;5037155;28;20467;-42
2021/11/27 12:40:45;;;;;;;2.80;2.53;;;6.40;72.70;;;;;;5034066;28;20525;-42
2021/11/27 12:43:17;;;;;;;4.00;2.10;;;6.40;72.40;;;;;;5038492;28;20491;-42
2021/11/27 12:45:47;;;;;;;8.63;3.33;;;6.50;71.60;;;;;;5033055;28;20982;-42
2021/11/27 12:48:34;;;;;;;2.20;2.00;;;6.50;69.60;;;;;;5038803;28;20443;-43
2021/11/27 12:51:18;;;;;;;4.50;3.80;;;6.40;69.80;;;;;;5039113;28;20818;-42
2021/11/27 12:54:00;;;;;;;3.00;2.50;;;6.40;69.80;;;;;;5032721;28;20447;-42
2021/11/27 12:56:53;;;;;;;2.17;1.73;;;6.40;69.20;;;;;;5037853;28;20518;-43
2021/11/27 12:59:23;;;;;;;2.10;1.90;;;6.30;68.40;;;;;;5037577;28;20821;-42
2021/11/27 13:01:54;;;;;;;2.47;1.60;;;6.30;68.20;;;;;;5030863;28;20479;-43
2021/11/27 13:04:23;;;;;;;2.47;1.77;;;6.20;68.90;;;;;;5039701;28;20452;-42
2021/11/27 13:06:50;;;;;;;3.70;1.80;;;6.20;69.20;;;;;;5033679;28;20461;-42